Portada
METAR-TAF:

METAR-TAF

Aeropuertos :

Jerez de la Frontera, España

Aeropuerto de Jerez

latitud: 36-45N, longitud: 006-04W, altitud: 27 m

Observación

El informe se hizo hace 29 minutos, a las 15:30 UTC
Viento 6 kt del sur-sureste, variando entre este-sureste y sur-suroeste
Temperatura 15°C
Humedad 59%
Presión 1006 hPa
Visibilidad 10 km o más
Escasas nubes a una altura de 3000 ft
Cielo nuboso a una altura de 4000 ft

METAR: LEJR 241530Z 15006KT 120V210 9999 FEW030 BKN040 15/07 Q1006

Hora: 16:59 (15:59 UTC)

Pronóstico

El informe se hizo hace 4 horas y 59 minutos, a las 11:00 UTC
Pronóstico válido del 24 a las 12 UTC al 25 a las 12 UTC
Viento 10 kt del sur-sureste
Visibilidad 10 km o más
Escasas nubes a una altura de 3500 ft
Probabilidad 30% :
Temporalmente
del 25 a las 03 UTC al 25 a las 09 UTC
lluvia

TAF: LEJR 241100Z 2412/2512 15010KT 9999 FEW035 TX18/2413Z TN06/2507Z PROB30 TEMPO 2503/2509 RA

Observaciones y pronósticos meteorológicos de más de 4000 aeropuertos (mensajes METAR y TAF).

Los puntos amarillos y rojos representan las estaciones disponibles.

Ponga el ratón en el punto deseado para ver el nombre de la estación.

Haga clic para ver las observaciones y los pronósticos meteorológicos.

Para cambiar el mapa : haga clic en los botones verdes con una cruz de color negro para hacer un zoom, en el botón verde con un guión para alejar o en las flechas verdes para mapas adyacentes.


METAR-TAF: